Roydon, United Kingdom
Current Conditions -  °F | °C
As of 4:50 AM on Saturday 25 Oct 2014 (Local Time) from EGSS Reporting Station
Moderate Fog Moderate Fog  
Wind Chill: 45°   Ceiling: Unl
Heat Index: 45°   Visibility: 0.37mi
Dew Point: 45°   Wind: 2mph
Humidity: 100%   Direction: 240°WSW
Pressure: 30"   Gusts: NA
Location:  51.77°N, 0.04°E
Report Text: EGSS 250350Z 24002KT 0600 R22/0500 FG NSC 07/07 Q1016
Loading
Personal Weather Stations






























Interactive Weather Map
Tropical Storm Tracking
New forecast layout! Learn more

10-Day Weather Forecast

Advertisements
Track Severe Weather on mobile